Wewoka, OK

6:06 AM CST on November 21, 2014 (GMT -0600)
Emergency Operations Center | Change Station
CLOSE
Current Station
Personal Weather Station
Location: Holdenville, OK
Elevation: 908 ft
Nearby Weather Stations

Elev 908 ft 35.08 °N, 96.40 °W | Updated 1 minute ago

Overcast
Overcast
55.0 °F
Feels Like 55.0 °F
N
5.0
Wind Variable Wind from South
Gusts 5.0 mph

Today
High -- | Low -- °F
--% Chance of Precip.
Yesterday
High -- | Low -- °F
Precip. -- in
7:06 AM 5:16 PM
Waning Crescent, 1% visible
Pressure 30.07 in
Visibility 0.8 miles
Clouds Overcast 200 ft
Dew Point 53 °F
Humidity 94%
Rainfall 0.00 in
Snow Depth Not available.
UV 0 out of 12
Pollen 2.00 out of 12
Air Quality Not available.
Flu Activity Not available.
METAR KADH 211155Z AUTO 15010KT 3/4SM BR OVC002 11/11 A3007 RMK AO2

More Conditions Fewer Conditions

Pressure 30.07 in
Visibility 0.8 miles
Clouds Overcast 200 ft
Dew Point 53 °F
Humidity 94%
Rainfall 0.00 in
Snow Depth Not available.
UV 0 out of 12
Pollen 2.00 out of 12
Air Quality Not available.
Flu Activity Not available.
METAR KADH 211155Z AUTO 15010KT 3/4SM BR OVC002 11/11 A3007 RMK AO2

More Conditions Fewer Conditions

10-Day Weather Forecast

Almanac

Astronomy

Nov. 21, 2014 Rise Set
Actual Time
Civil Twilight
Nautical Twilight
Astronomical Twilight
Moon
Length of Visible Light
Length of Day
Tomorrow will be .
, % of the Moon is Illuminated

Today's Extremes

State Highs State Lows

Community

WunderPhotos

Upload Photos

1,772,646 photos uploaded!

WunderBlogs® & News

Nearby

Air Quality

  Air Quality AQ Index Pollutant
Not available.

Snow Depth

Station Depth Elevation

Earthquake Activity

City Distance Mag. Time & Date
Minimum magnitude displayed is 2.5.

Coastal Water Temperatures

Place Temperature

Nearby Weather Stations